createdAt,value
2022-11-13T00:02:54.881Z,7.8
2022-11-13T00:08:19.854Z,7.7
2022-11-13T00:13:46.841Z,7.8
2022-11-13T00:19:10.165Z,7.8
2022-11-13T00:24:48.137Z,7.8
2022-11-13T00:29:55.401Z,7.8
2022-11-13T00:36:30.024Z,7.8
2022-11-13T00:41:58.313Z,7.8
2022-11-13T00:47:20.023Z,7.8
2022-11-13T00:52:43.261Z,7.8
2022-11-13T00:57:50.767Z,7.9
2022-11-13T01:02:58.013Z,7.9
2022-11-13T01:08:21.149Z,7.9
2022-11-13T01:13:45.576Z,7.9
2022-11-13T01:18:51.425Z,7.9
2022-11-13T01:23:59.378Z,7.9
2022-11-13T01:34:44.388Z,8
2022-11-13T01:40:22.739Z,8
2022-11-13T01:45:45.123Z,8.1
2022-11-13T01:51:06.832Z,8.1
2022-11-13T01:56:29.847Z,8.1
2022-11-13T02:02:08.811Z,8.1
2022-11-13T02:07:46.702Z,8.1
2022-11-13T02:13:24.935Z,8.1
2022-11-13T02:18:48.277Z,8.1
2022-11-13T02:24:25.781Z,8.1
2022-11-13T02:29:50.596Z,8.1
2022-11-13T02:40:08.526Z,8.1
2022-11-13T02:45:30.372Z,8.1
2022-11-13T02:51:08.475Z,8.2
2022-11-13T02:56:51.631Z,8.2
2022-11-13T03:02:32.362Z,8.1
2022-11-13T03:08:56.973Z,8.2
2022-11-13T03:14:19.438Z,8.2
2022-11-13T03:19:41.465Z,8.2
2022-11-13T03:25:09.017Z,8.2
2022-11-13T03:30:31.535Z,8.2
2022-11-13T03:35:22.977Z,8.2
2022-11-13T03:40:51.151Z,8.2
2022-11-13T03:46:29.157Z,8.3
2022-11-13T03:52:12.781Z,8.3
2022-11-13T03:57:51.056Z,8.3
2022-11-13T04:03:35.085Z,8.3
2022-11-13T04:14:37.789Z,8.3
2022-11-13T04:20:16.078Z,8.3
2022-11-13T04:25:52.750Z,8.3
2022-11-13T04:31:30.383Z,8.3
2022-11-13T04:37:08.379Z,8.4
2022-11-13T04:42:33.488Z,8.4
2022-11-13T04:48:11.671Z,8.4
2022-11-13T04:53:49.809Z,8.4
2022-11-13T04:59:32.131Z,8.4
2022-11-13T05:05:10.487Z,8.4
2022-11-13T05:10:33.439Z,8.5
2022-11-13T05:15:57.513Z,8.4
2022-11-13T05:21:36.007Z,8.5
2022-11-13T05:27:17.423Z,8.5
2022-11-13T05:32:55.335Z,8.6
2022-11-13T05:38:36.373Z,8.6
2022-11-13T05:43:59.695Z,8.6
2022-11-13T05:49:37.792Z,8.6
2022-11-13T05:55:16.419Z,8.6
2022-11-13T06:00:54.156Z,8.7
2022-11-13T06:06:34.562Z,8.8
2022-11-13T06:12:12.563Z,8.8
2022-11-13T06:17:51.013Z,8.9
2022-11-13T06:23:30.712Z,8.9
2022-11-13T06:28:53.616Z,9
2022-11-13T06:34:31.670Z,9.1
2022-11-13T06:39:56.026Z,9.3
2022-11-13T06:45:19.084Z,9.4
2022-11-13T06:50:45.746Z,9.5
2022-11-13T06:56:10.662Z,9.6
2022-11-13T07:01:35.517Z,9.8
2022-11-13T07:06:58.374Z,9.9
2022-11-13T07:12:36.803Z,10.1
2022-11-13T07:18:38.014Z,10.3
2022-11-13T07:24:17.271Z,10.4
2022-11-13T07:29:40.324Z,10.6
2022-11-13T07:35:23.914Z,10.8
2022-11-13T07:40:31.077Z,11
2022-11-13T07:46:20.849Z,11.2
2022-11-13T07:51:51.668Z,11.3
2022-11-13T07:57:02.240Z,11.4
2022-11-13T08:02:26.904Z,11.6
2022-11-13T08:07:51.314Z,11.8
2022-11-13T08:17:51.698Z,12
2022-11-13T08:23:02.169Z,12.2
2022-11-13T08:28:13.106Z,12.4
2022-11-13T08:33:53.131Z,12.8
2022-11-13T08:39:33.907Z,13.1
2022-11-13T08:45:11.498Z,13.5
2022-11-13T08:50:55.165Z,13.9
2022-11-13T08:56:17.820Z,14.1
2022-11-13T09:02:00.899Z,14.3
2022-11-13T09:07:43.886Z,14.5
2022-11-13T09:13:22.407Z,14.7
2022-11-13T09:18:50.899Z,15
2022-11-13T09:24:22.226Z,15.4
2022-11-13T09:29:55.299Z,15.8
2022-11-13T09:35:18.326Z,16.1
2022-11-13T09:40:48.177Z,16.7
2022-11-13T09:46:01.988Z,17.3
2022-11-13T09:51:25.093Z,18.1
2022-11-13T09:57:08.535Z,19.3
2022-11-13T10:02:31.437Z,20.3
2022-11-13T10:08:46.071Z,22.8
2022-11-13T10:14:24.455Z,16.4
2022-11-13T10:19:47.371Z,24.7
2022-11-13T10:25:43.195Z,24.3
2022-11-13T10:31:13.450Z,24.1
2022-11-13T10:36:36.280Z,23.9
2022-11-13T10:42:21.307Z,21
2022-11-13T10:48:20.736Z,23.4
2022-11-13T10:53:43.617Z,24.3
2022-11-13T10:59:08.336Z,24.5
2022-11-13T11:04:31.795Z,24.9
2022-11-13T11:10:46.053Z,25.4
2022-11-13T11:16:29.430Z,26.1
2022-11-13T11:22:07.301Z,26.1
2022-11-13T11:27:48.125Z,26.2
2022-11-13T11:33:25.739Z,26.3
2022-11-13T11:44:26.822Z,25.9
2022-11-13T11:49:56.262Z,25.9
2022-11-13T11:55:34.183Z,25.9
2022-11-13T12:01:12.551Z,25.9
2022-11-13T12:06:35.435Z,26
2022-11-13T12:12:13.763Z,25.9
2022-11-13T12:17:36.783Z,25.9
2022-11-13T12:23:15.194Z,25.9
2022-11-13T12:28:57.420Z,26.1
2022-11-13T12:34:39.532Z,26.2
2022-11-13T12:40:17.289Z,26.5
2022-11-13T12:45:42.680Z,26.8
2022-11-13T12:51:11.544Z,26.9
2022-11-13T12:56:19.119Z,27.6
2022-11-13T13:02:33.372Z,28.2
2022-11-13T13:08:11.656Z,28.4
2022-11-13T13:13:40.232Z,28.5
2022-11-13T13:18:47.688Z,28.4
2022-11-13T13:23:39.098Z,28.7
2022-11-13T13:29:01.922Z,29
2022-11-13T13:34:14.819Z,29.1
2022-11-13T13:39:31.228Z,29.3
2022-11-13T13:45:09.683Z,29.4
2022-11-13T13:50:17.679Z,29.4
2022-11-13T13:55:47.499Z,29.4
2022-11-13T14:01:37.421Z,29.4
2022-11-13T14:07:16.226Z,29.3
2022-11-13T14:12:55.412Z,29.1
2022-11-13T14:18:33.034Z,28.9
2022-11-13T14:23:55.913Z,28.7
2022-11-13T14:29:34.207Z,28.4
2022-11-13T14:35:16.234Z,27.6
2022-11-13T14:40:54.686Z,27.3
2022-11-13T14:46:34.219Z,26.9
2022-11-13T14:52:13.097Z,26.5
2022-11-13T14:58:06.602Z,25.6
2022-11-13T15:03:03.899Z,24.6
2022-11-13T15:07:56.760Z,23.3
2022-11-13T15:13:04.377Z,22
2022-11-13T15:17:55.485Z,20.9
2022-11-13T15:23:39.063Z,19.6
2022-11-13T15:29:03.844Z,18.4
2022-11-13T15:33:54.663Z,17.6
2022-11-13T15:39:23.953Z,16.6
2022-11-13T15:44:47.610Z,15.6
2022-11-13T15:50:33.520Z,14.8
2022-11-13T16:01:42.871Z,13.3
2022-11-13T16:07:29.572Z,12.6
2022-11-13T16:12:37.031Z,12
2022-11-13T16:18:22.412Z,11.4
2022-11-13T16:23:48.840Z,10.9
2022-11-13T16:29:57.751Z,10.3
2022-11-13T16:35:23.019Z,9.9
2022-11-13T16:40:44.629Z,9.5
2022-11-13T16:46:30.215Z,9.1
2022-11-13T16:52:08.612Z,8.7
2022-11-13T16:57:46.616Z,8.3
2022-11-13T17:03:17.329Z,8
2022-11-13T17:09:00.032Z,7.6
2022-11-13T17:15:03.526Z,7.3
2022-11-13T17:20:26.365Z,7
2022-11-13T17:26:05.899Z,6.7
2022-11-13T17:37:06.494Z,6.1
2022-11-13T17:42:47.026Z,5.9
2022-11-13T17:47:59.777Z,5.7
2022-11-13T17:53:29.600Z,5.5
2022-11-13T17:59:11.379Z,5.3
2022-11-13T18:04:33.680Z,5.1
2022-11-13T18:10:01.350Z,4.9
2022-11-13T18:15:24.763Z,4.8
2022-11-13T18:21:19.050Z,4.7
2022-11-13T18:27:06.205Z,4.5
2022-11-13T18:32:45.750Z,4.4
2022-11-13T18:38:23.661Z,4.2
2022-11-13T18:44:04.936Z,4.1
2022-11-13T18:49:44.475Z,3.9
2022-11-13T18:55:06.463Z,3.8
2022-11-13T19:00:44.630Z,3.6
2022-11-13T19:06:56.435Z,3.5
2022-11-13T19:12:38.434Z,3.4
2022-11-13T19:18:06.765Z,3.3
2022-11-13T19:23:47.733Z,3.1
2022-11-13T19:29:25.174Z,3.1
2022-11-13T19:34:47.246Z,2.9
2022-11-13T19:40:28.764Z,2.8
2022-11-13T19:46:06.971Z,2.7
2022-11-13T19:51:29.809Z,2.6
2022-11-13T19:57:08.588Z,2.6
2022-11-13T20:02:34.734Z,2.5
2022-11-13T20:07:58.389Z,2.4
2022-11-13T20:18:43.460Z,2.3
2022-11-13T20:24:21.710Z,2.2
2022-11-13T20:29:49.259Z,2.1
2022-11-13T20:35:26.667Z,2.1
2022-11-13T20:41:10.196Z,1.9
2022-11-13T20:46:48.593Z,1.9
2022-11-13T20:52:30.301Z,1.8
2022-11-13T20:57:57.367Z,1.8
2022-11-13T21:03:40.126Z,1.7
2022-11-13T21:09:18.311Z,1.6
2022-11-13T21:14:56.556Z,1.5
2022-11-13T21:20:36.027Z,1.4
2022-11-13T21:26:13.456Z,1.3
2022-11-13T21:31:57.736Z,1.2
2022-11-13T21:37:41.166Z,1.1
2022-11-13T21:43:19.646Z,1.1
2022-11-13T21:48:57.523Z,0.9
2022-11-13T21:54:35.885Z,0.9
2022-11-13T22:00:14.610Z,0.8
2022-11-13T22:05:54.706Z,0.7
2022-11-13T22:11:36.071Z,0.6
2022-11-13T22:17:12.959Z,0.6
2022-11-13T22:22:54.921Z,0.6
2022-11-13T22:28:33.873Z,0.6
2022-11-13T22:34:11.788Z,0.6
2022-11-13T22:39:49.126Z,0.6
2022-11-13T22:46:01.821Z,0.5
2022-11-13T22:51:39.771Z,0.4
2022-11-13T22:57:17.912Z,0.4
2022-11-13T23:02:46.029Z,0.3
2022-11-13T23:08:10.014Z,0.3
2022-11-13T23:13:49.141Z,0.2
2022-11-13T23:19:02.897Z,0.1
2022-11-13T23:24:40.264Z,0.1
2022-11-13T23:30:06.823Z,0
2022-11-13T23:36:10.795Z,-0.1
2022-11-13T23:41:48.232Z,-0.1
2022-11-13T23:48:07.358Z,-0.3
2022-11-13T23:53:45.855Z,-0.3
2022-11-13T23:59:24.381Z,-0.4
